Maran Pythia — SVAQ5 — position and weather

sailwx.info

Track history (hours):
 
Tides and Currents Weather Stations Pressure Air Temp Water Temp Dewpoint Dewpoint Depression Visibility Wind Speed Wind Dir Waves Ship Positions

Maran Pythia

Last reported at 2016-May-26 11:26 UTC. Time now 2016-Jun-25 21:31 UTC.
Position N 02°01' E 102°11'.
Warning: this ship's position is 30 days out of date.

Length 275 m; draft 9.7 m.

Type: Ship. MMSI: 240893000.

Date/timePositionNaut miles runAvg speedWind from/ knotsBaromVisibWave heightAir tempDewpointWater temp
2016-May-26 11:26N 02°01' E 102°11'910.2
2016-May-26 10:33N 01°56' E 102°18'1110.6
2016-May-26 09:33N 01°51' E 102°28'1110.8
2016-May-26 08:33N 01°47' E 102°37'1110.9
2016-May-26 07:33N 01°43' E 102°47'4510.6
2016-May-26 03:22N 01°16' E 103°23'810.2
2016-May-26 02:33N 01°13' E 103°31'1211.4
2016-May-26 01:32N 01°10' E 103°42'9 9.1
2016-May-26 00:33N 01°11' E 103°51'4 4.3
2016-May-25 23:32N 01°15' E 103°54'0 0.0
2016-May-25 22:32N 01°15' E 103°54'0 0.1
2016-May-25 21:32N 01°15' E 103°54'0 0.0
2016-May-25 20:32N 01°15' E 103°54'0 0.0
2016-May-25 19:29N 01°15' E 103°54'0 0.0
2016-May-25 18:32N 01°15' E 103°54'0 0.0
2016-May-25 17:29N 01°15' E 103°54'0 0.0
2016-May-25 16:32N 01°15' E 103°54'0 0.0
2016-May-25 15:30N 01°15' E 103°54'0 0.3
2016-May-25 14:29N 01°14' E 103°54'0 0.0
2016-May-25 13:32N 01°14' E 103°54'0 0.0
2016-May-25 12:32N 01°15' E 103°54'0 0.0
2016-May-25 11:29N 01°15' E 103°54'0 0.1
2016-May-25 10:32N 01°15' E 103°53'0 0.1
2016-May-25 09:32N 01°15' E 103°54'0 0.0
2016-May-25 08:32N 01°15' E 103°54'0 0.0
2016-May-25 07:29N 01°15' E 103°54'0 0.1
2016-May-25 06:23N 01°15' E 103°54'0 0.5
2016-May-25 05:34N 01°15' E 103°54'4 4.5
2016-May-25 04:33N 01°16' E 103°58'6 5.6
2016-May-25 03:32N 01°16' E 104°04'8 8.5
2016-May-25 02:33N 01°18' E 104°12'  
2016-May-17 19:13N 01°16' E 104°12'810.9
2016-May-17 18:32N 01°15' E 104°05'1110.9
2016-May-17 17:33N 01°13' E 103°54'1110.9
2016-May-17 16:33N 01°08' E 103°45'10 9.8
2016-May-17 15:33N 01°05' E 103°35'7512.5
2016-May-17 09:32N 01°45' E 102°32'1413.2
2016-May-17 08:31N 01°51' E 102°20'1512.6
2016-May-17 07:21N 01°57' E 102°07'  
Track history (hours):
 
Tides and Currents Weather Stations Pressure Air Temp Water Temp Dewpoint Dewpoint Depression Visibility Wind Speed Wind Dir Waves Ship Positions

Maran Pythia

Last reported at 2016-May-26 11:26 UTC. Time now 2016-Jun-25 21:31 UTC.
Position N 02°01' E 102°11'.
Warning: this ship's position is 30 days out of date.

Length 275 m; draft 9.7 m.

Type: Ship. MMSI: 240893000.

Date/timePositionNaut miles runAvg speedWind from/ knotsBaromVisibWave heightAir tempDewpointWater temp
2016-May-26 11:26N 02°01' E 102°11'910.2
2016-May-26 10:33N 01°56' E 102°18'1110.6
2016-May-26 09:33N 01°51' E 102°28'1110.8
2016-May-26 08:33N 01°47' E 102°37'1110.9
2016-May-26 07:33N 01°43' E 102°47'4510.6
2016-May-26 03:22N 01°16' E 103°23'810.2
2016-May-26 02:33N 01°13' E 103°31'1211.4
2016-May-26 01:32N 01°10' E 103°42'9 9.1
2016-May-26 00:33N 01°11' E 103°51'4 4.3
2016-May-25 23:32N 01°15' E 103°54'0 0.0
2016-May-25 22:32N 01°15' E 103°54'0 0.1
2016-May-25 21:32N 01°15' E 103°54'0 0.0
2016-May-25 20:32N 01°15' E 103°54'0 0.0
2016-May-25 19:29N 01°15' E 103°54'0 0.0
2016-May-25 18:32N 01°15' E 103°54'0 0.0
2016-May-25 17:29N 01°15' E 103°54'0 0.0
2016-May-25 16:32N 01°15' E 103°54'0 0.0
2016-May-25 15:30N 01°15' E 103°54'0 0.3
2016-May-25 14:29N 01°14' E 103°54'0 0.0
2016-May-25 13:32N 01°14' E 103°54'0 0.0
2016-May-25 12:32N 01°15' E 103°54'0 0.0
2016-May-25 11:29N 01°15' E 103°54'0 0.1
2016-May-25 10:32N 01°15' E 103°53'0 0.1
2016-May-25 09:32N 01°15' E 103°54'0 0.0
2016-May-25 08:32N 01°15' E 103°54'0 0.0
2016-May-25 07:29N 01°15' E 103°54'0 0.1
2016-May-25 06:23N 01°15' E 103°54'0 0.5
2016-May-25 05:34N 01°15' E 103°54'4 4.5
2016-May-25 04:33N 01°16' E 103°58'6 5.6
2016-May-25 03:32N 01°16' E 104°04'8 8.5
2016-May-25 02:33N 01°18' E 104°12'  
2016-May-17 19:13N 01°16' E 104°12'810.9
2016-May-17 18:32N 01°15' E 104°05'1110.9
2016-May-17 17:33N 01°13' E 103°54'1110.9
2016-May-17 16:33N 01°08' E 103°45'10 9.8
2016-May-17 15:33N 01°05' E 103°35'7512.5
2016-May-17 09:32N 01°45' E 102°32'1413.2
2016-May-17 08:31N 01°51' E 102°20'1512.6
2016-May-17 07:21N 01°57' E 102°07'  

Dump ship's entire track history